Time;durP1;ratioP1;P1;durP2;ratioP2;P2;SDS_P1;SDS_P2;PMS_P1;PMS_P2;Temp;Humidity;BMP_temperature;BMP_pressure;BME280_temperature;BME280_humidity;BME280_pressure;Samples;Min_cycle;Max_cycle;Signal;HPM_P1;HPM_P2
2022/03/28 00:00:49;;;;;;;15.43;8.02;;;;;;;11.15;54.92;102629.13;6277429;22;20349;-64
2022/03/28 00:03:15;;;;;;;16.48;8.90;;;;;;;11.12;55.20;102626.34;6277847;22;20008;-64
2022/03/28 00:05:40;;;;;;;17.95;7.72;;;;;;;11.12;55.73;102629.00;6278276;22;20015;-64
2022/03/28 00:08:06;;;;;;;17.45;7.88;;;;;;;11.05;55.38;102632.28;6277492;22;20008;-64
2022/03/28 00:10:33;;;;;;;17.15;8.52;;;;;;;11.02;55.58;102630.41;6277874;22;20007;-64
2022/03/28 00:12:58;;;;;;;18.50;8.55;;;;;;;10.98;55.87;102627.59;6277882;22;19999;-64
2022/03/28 00:15:24;;;;;;;18.65;8.55;;;;;;;10.95;55.73;102627.47;6277955;22;20007;-64
2022/03/28 00:17:51;;;;;;;16.75;9.40;;;;;;;10.91;55.98;102625.53;6277698;22;20086;-64
2022/03/28 00:20:16;;;;;;;18.20;8.48;;;;;;;10.90;55.76;102618.47;6277711;22;20010;-64
2022/03/28 00:22:42;;;;;;;18.67;7.97;;;;;;;10.87;55.86;102615.69;6277449;22;20079;-63
2022/03/28 00:25:10;;;;;;;20.45;8.13;;;;;;;10.84;55.78;102605.91;6277862;22;20004;-63
2022/03/28 00:27:35;;;;;;;16.90;7.82;;;;;;;10.84;56.05;102605.00;6277791;22;20429;-64
2022/03/28 00:30:01;;;;;;;16.08;8.27;;;;;;;10.82;55.72;102597.00;6277825;22;20006;-64
2022/03/28 00:32:26;;;;;;;19.23;8.90;;;;;;;10.80;56.28;102592.53;6277466;22;20324;-64
2022/03/28 00:37:21;;;;;;;18.95;8.65;;;;;;;10.67;56.52;102576.19;6275084;22;20026;-58
2022/03/28 00:39:46;;;;;;;20.60;8.57;;;;;;;10.69;56.93;102577.13;6277645;22;20008;-59
2022/03/28 00:42:13;;;;;;;17.48;8.55;;;;;;;10.60;57.63;102574.13;6277711;22;20004;-59
2022/03/28 00:44:38;;;;;;;17.63;8.35;;;;;;;10.54;57.66;102576.56;6278027;22;20007;-60
2022/03/28 00:47:07;;;;;;;17.80;7.85;;;;;;;10.48;58.10;102581.59;6277670;22;20328;-59
2022/03/28 00:49:34;;;;;;;21.02;7.93;;;;;;;10.50;58.19;102580.81;6277676;22;20007;-60
2022/03/28 00:52:00;;;;;;;15.18;7.70;;;;;;;10.50;57.97;102578.19;6277531;22;20396;-60
2022/03/28 00:54:26;;;;;;;20.10;8.38;;;;;;;10.50;57.68;102578.19;6277545;22;20008;-60
2022/03/28 00:56:51;;;;;;;14.10;7.80;;;;;;;10.54;57.75;102579.19;6277640;22;20006;-60
2022/03/28 00:59:17;;;;;;;19.00;8.38;;;;;;;10.56;57.47;102573.97;6277561;22;20413;-60
2022/03/28 01:01:47;;;;;;;15.50;7.65;;;;;;;10.53;57.50;102573.03;6277407;22;20004;-60
2022/03/28 01:04:14;;;;;;;18.55;7.88;;;;;;;10.49;57.20;102557.88;6277526;22;20054;-60
2022/03/28 01:06:39;;;;;;;13.98;7.55;;;;;;;10.46;57.30;102565.69;6277754;22;20007;-60
2022/03/28 01:09:06;;;;;;;16.75;8.10;;;;;;;10.37;57.60;102562.69;6277509;22;20003;-60
2022/03/28 01:11:33;;;;;;;18.73;7.80;;;;;;;10.38;57.52;102564.47;6277517;22;20424;-58
2022/03/28 01:13:59;;;;;;;15.27;7.82;;;;;;;10.34;57.52;102553.75;6277418;22;20078;-58
2022/03/28 01:18:05;;;;;;;20.60;7.63;;;;;;;10.26;57.56;102556.06;6277293;22;20086;-59
2022/03/28 01:19:23;;;;;;;15.20;7.25;;;;;;;10.24;57.54;102544.53;6276741;22;20012;-60
2022/03/28 01:21:49;;;;;;;14.35;7.10;;;;;;;10.25;57.52;102543.72;6277332;22;20420;-60
2022/03/28 01:24:15;;;;;;;14.75;7.13;;;;;;;10.27;57.26;102542.00;6277289;22;20015;-60
2022/03/28 01:26:40;;;;;;;14.68;7.07;;;;;;;10.26;57.19;102534.94;6277561;22;20007;-59
2022/03/28 01:29:06;;;;;;;14.63;6.90;;;;;;;10.19;57.25;102532.84;6277274;22;20000;-59
2022/03/28 01:31:32;;;;;;;15.27;7.00;;;;;;;10.09;57.72;102525.41;6277297;22;20003;-60
2022/03/28 01:33:58;;;;;;;15.45;6.55;;;;;;;9.94;59.00;102536.28;6277143;22;20125;-60
2022/03/28 01:36:29;;;;;;;17.80;7.00;;;;;;;9.85;59.24;102531.53;6276758;22;20015;-59
2022/03/28 01:38:55;;;;;;;17.37;7.00;;;;;;;9.81;59.63;102526.97;6277296;22;20008;-59
2022/03/28 01:41:20;;;;;;;20.85;6.88;;;;;;;9.77;59.54;102519.75;6277324;22;20328;-59
2022/03/28 01:43:46;;;;;;;15.43;6.60;;;;;;;9.80;59.29;102517.22;6277422;22;20034;-58
2022/03/28 01:46:11;;;;;;;13.02;6.32;;;;;;;9.79;59.13;102512.78;6276967;22;20000;-59
2022/03/28 01:48:42;;;;;;;12.55;5.95;;;;;;;9.81;59.09;102520.75;6276778;22;20007;-59
2022/03/28 01:51:07;;;;;;;12.95;6.47;;;;;;;9.81;58.76;102516.41;6276997;22;20008;-59
2022/03/28 01:53:33;;;;;;;13.10;6.40;;;;;;;9.77;59.40;102519.75;6277058;22;20370;-59
2022/03/28 01:55:58;;;;;;;16.75;6.78;;;;;;;9.74;59.69;102509.94;6277034;22;20007;-59
2022/03/28 01:58:36;;;;;;;18.90;7.05;;;;;;;9.76;58.63;102517.91;6277084;22;20003;-59
2022/03/28 02:01:07;;;;;;;20.58;7.30;;;;;;;9.68;58.71;102517.63;6276831;22;20004;-60
2022/03/28 02:03:32;;;;;;;16.25;7.63;;;;;;;9.66;59.13;102519.28;6249514;22;20004;-59
2022/03/28 02:05:58;;;;;;;16.92;7.15;;;;;;;9.61;59.49;102519.94;6276851;22;20078;-59
2022/03/28 02:08:23;;;;;;;20.25;7.45;;;;;;;9.58;59.57;102519.81;6276658;22;20014;-59
2022/03/28 02:10:48;;;;;;;15.98;7.15;;;;;;;9.58;59.25;102511.91;6276996;22;20079;-59
2022/03/28 02:13:14;;;;;;;18.83;7.93;;;;;;;9.57;59.40;102511.00;6276745;22;20004;-59
2022/03/28 02:15:40;;;;;;;13.30;6.68;;;;;;;9.60;59.08;102507.59;6276793;22;20003;-59
2022/03/28 02:18:05;;;;;;;14.48;7.00;;;;;;;9.59;59.30;102501.38;6276656;22;20006;-60
2022/03/28 02:20:30;;;;;;;15.43;7.15;;;;;;;9.54;59.70;102501.19;6276987;22;20008;-60
2022/03/28 02:22:56;;;;;;;20.33;8.23;;;;;;;9.48;59.41;102503.59;6224292;22;20011;-59
2022/03/28 02:25:21;;;;;;;15.95;7.47;;;;;;;9.46;59.59;102499.09;6276759;22;20003;-59
2022/03/28 02:27:47;;;;;;;14.80;7.88;;;;;;;9.46;59.61;102504.34;6276638;22;20027;-59
2022/03/28 02:30:14;;;;;;;18.50;7.85;;;;;;;9.39;59.60;102499.69;6276646;22;20439;-59
2022/03/28 02:32:40;;;;;;;15.82;7.53;;;;;;;9.35;59.97;102500.38;6276376;22;20007;-60
2022/03/28 02:35:07;;;;;;;21.33;8.07;;;;;;;9.35;59.77;102496.00;6276304;22;20325;-59
2022/03/28 02:37:32;;;;;;;17.40;7.68;;;;;;;9.33;60.19;102489.75;6249734;22;20015;-59
2022/03/28 02:39:58;;;;;;;18.40;7.40;;;;;;;9.36;59.97;102489.88;6276905;22;20332;-59
2022/03/28 02:42:23;;;;;;;18.52;7.32;;;;;;;9.36;59.68;102484.63;6276672;22;20333;-59
2022/03/28 02:44:50;;;;;;;17.90;7.40;;;;;;;9.30;60.02;102481.72;6276647;22;20093;-59
2022/03/28 02:47:20;;;;;;;17.52;7.35;;;;;;;9.27;59.90;102474.56;6277029;22;20004;-59
2022/03/28 02:49:51;;;;;;;19.05;7.43;;;;;;;9.21;59.66;102466.41;6276479;22;20071;-59
2022/03/28 02:52:16;;;;;;;17.40;6.85;;;;;;;9.15;59.34;102463.50;6276590;22;19999;-59
2022/03/28 02:54:42;;;;;;;17.33;6.82;;;;;;;9.07;60.19;102462.28;6276505;22;20004;-60
2022/03/28 02:57:08;;;;;;;15.98;7.13;;;;;;;8.93;60.33;102466.06;6276840;22;20421;-59
2022/03/28 02:59:33;;;;;;;16.35;6.68;;;;;;;8.88;61.15;102459.69;6276431;22;20007;-59
2022/03/28 03:01:59;;;;;;;16.80;6.38;;;;;;;8.88;61.10;102457.06;6276594;22;20003;-59
2022/03/28 03:04:25;;;;;;;15.65;6.60;;;;;;;8.83;60.62;102456.88;6276655;22;20004;-60
2022/03/28 03:06:51;;;;;;;14.38;6.40;;;;;;;8.82;61.25;102455.03;6276506;22;20003;-59
2022/03/28 03:09:16;;;;;;;15.45;6.22;;;;;;;8.77;61.87;102452.19;6276489;22;20378;-60
2022/03/28 03:11:42;;;;;;;16.88;6.93;;;;;;;8.73;62.17;102452.91;6276418;22;20344;-60
2022/03/28 03:14:08;;;;;;;17.80;6.85;;;;;;;8.66;61.80;102455.22;6276610;22;20337;-59
2022/03/28 03:16:34;;;;;;;16.98;6.57;;;;;;;8.63;62.01;102453.34;6276426;22;20007;-59
2022/03/28 03:19:00;;;;;;;19.17;6.78;;;;;;;8.70;61.52;102450.16;6276645;22;20008;-60
2022/03/28 03:21:25;;;;;;;17.95;6.75;;;;;;;8.72;62.07;102448.47;6276375;22;20375;-59
2022/03/28 03:23:51;;;;;;;14.60;6.55;;;;;;;8.71;61.29;102445.78;6276376;22;20000;-60
2022/03/28 03:26:16;;;;;;;14.15;6.65;;;;;;;8.74;61.82;102444.19;6276495;22;19999;-59
2022/03/28 03:28:41;;;;;;;15.70;6.40;;;;;;;8.75;61.58;102442.44;6249329;22;20332;-59
2022/03/28 03:31:07;;;;;;;15.57;6.80;;;;;;;8.74;61.32;102441.56;6276345;22;20004;-58
2022/03/28 03:33:33;;;;;;;13.60;6.50;;;;;;;8.73;61.17;102439.72;6276713;22;20082;-58
2022/03/28 03:36:00;;;;;;;14.63;6.72;;;;;;;8.77;61.32;102439.03;6276050;22;20448;-59
2022/03/28 03:38:26;;;;;;;19.33;7.55;;;;;;;8.73;61.06;102445.00;6276279;22;20073;-59
2022/03/28 03:40:52;;;;;;;14.98;6.40;;;;;;;8.65;61.12;102434.94;6276604;22;20042;-59
2022/03/28 03:43:18;;;;;;;18.60;6.72;;;;;;;8.65;61.39;102435.88;6277470;22;20479;-59
2022/03/28 03:45:53;;;;;;;14.98;6.82;;;;;;;8.62;60.83;102440.09;6278456;22;19999;-60
2022/03/28 03:48:22;;;;;;;14.85;6.25;;;;;;;8.59;60.72;102435.59;6278356;22;20010;-61
2022/03/28 03:50:47;;;;;;;16.08;6.35;;;;;;;8.66;61.51;102426.25;6250951;22;20332;-59
2022/03/28 03:53:16;;;;;;;12.38;6.18;;;;;;;8.67;60.90;102425.41;6250937;22;20006;-59
2022/03/28 03:55:42;;;;;;;14.50;6.25;;;;;;;8.64;60.79;102419.97;6278168;22;20000;-59
2022/03/28 03:58:08;;;;;;;14.75;6.70;;;;;;;8.49;61.02;102415.84;6278050;22;20004;-59
2022/03/28 04:00:33;;;;;;;14.02;5.60;;;;;;;8.35;62.11;102423.91;6278335;22;20083;-59
2022/03/28 04:02:58;;;;;;;11.85;5.38;;;;;;;8.26;62.60;102416.50;6277934;22;20568;-59
2022/03/28 04:05:24;;;;;;;12.27;4.82;;;;;;;8.22;62.17;102409.28;6277904;22;20004;-59
2022/03/28 04:07:50;;;;;;;7.78;4.55;;;;;;;8.20;61.61;102406.59;6277917;22;20007;-59
2022/03/28 04:10:15;;;;;;;14.18;4.25;;;;;;;8.21;62.18;102408.38;6277955;22;20026;-59
2022/03/28 04:12:41;;;;;;;7.18;4.43;;;;;;;8.19;61.68;102399.53;6250896;22;20006;-59
2022/03/28 04:15:07;;;;;;;11.20;4.60;;;;;;;8.13;62.05;102396.59;6277801;22;20329;-59
2022/03/28 04:17:45;;;;;;;8.15;4.40;;;;;;;8.07;62.04;102401.59;6277834;22;20000;-58
2022/03/28 04:20:13;;;;;;;9.70;4.25;;;;;;;7.95;62.38;102398.41;6278167;22;20012;-58
2022/03/28 04:22:42;;;;;;;8.75;4.80;;;;;;;7.91;62.44;102405.25;6278157;22;20117;-58
2022/03/28 04:25:09;;;;;;;10.57;4.40;;;;;;;7.90;63.32;102400.81;6277875;22;20325;-59
2022/03/28 04:27:35;;;;;;;8.40;4.60;;;;;;;7.91;63.21;102396.47;6277870;22;20049;-58
2022/03/28 04:30:06;;;;;;;8.45;4.50;;;;;;;7.97;63.03;102396.75;6277842;22;20301;-58
2022/03/28 04:32:33;;;;;;;30.70;16.60;;;;;;;7.99;62.52;102392.44;6277479;22;20079;-59
2022/03/28 04:34:59;;;;;;;21.60;11.65;;;;;;;7.97;62.37;102391.50;6277831;22;20003;-59
2022/03/28 04:37:24;;;;;;;13.95;5.53;;;;;;;7.99;62.53;102393.34;6277676;22;20377;-59
2022/03/28 04:39:50;;;;;;;12.27;5.53;;;;;;;7.98;62.59;102396.81;6277708;22;20387;-60
2022/03/28 04:42:15;;;;;;;12.07;5.45;;;;;;;7.92;63.17;102399.19;6277608;22;20000;-59
2022/03/28 04:44:41;;;;;;;10.80;5.35;;;;;;;7.85;62.75;102404.97;6277661;22;20083;-59
2022/03/28 04:47:07;;;;;;;12.82;5.32;;;;;;;7.75;62.65;102403.66;6277520;22;20000;-59
2022/03/28 04:49:33;;;;;;;15.95;6.15;;;;;;;7.69;64.14;102408.59;6277797;22;20015;-59
2022/03/28 04:51:59;;;;;;;20.73;6.65;;;;;;;7.70;64.61;102413.03;6250524;22;20314;-60
2022/03/28 04:54:36;;;;;;;17.08;6.10;;;;;;;7.82;63.79;102412.72;6277265;22;20000;-59
2022/03/28 04:57:04;;;;;;;16.98;5.72;;;;;;;7.91;62.80;102410.50;6277584;22;19999;-59
2022/03/28 04:59:31;;;;;;;15.60;6.13;;;;;;;7.99;62.20;102400.34;6277762;22;20165;-60
2022/03/28 05:02:01;;;;;;;14.43;5.53;;;;;;;8.08;62.30;102398.13;6277411;22;20037;-59
2022/03/28 05:04:27;;;;;;;13.68;5.70;;;;;;;8.19;61.03;102404.81;6277482;22;20417;-58
2022/03/28 05:06:52;;;;;;;15.43;6.80;;;;;;;8.19;60.79;102394.28;6277625;22;20130;-60
2022/03/28 05:09:18;;;;;;;15.45;5.25;;;;;;;8.02;60.69;102408.41;6277510;22;20014;-59
2022/03/28 05:11:44;;;;;;;11.30;5.57;;;;;;;7.82;61.60;102399.56;6277455;22;20006;-59
2022/03/28 05:14:10;;;;;;;12.65;5.50;;;;;;;7.70;62.93;102397.25;6277344;22;20038;-60
2022/03/28 05:16:36;;;;;;;14.88;5.53;;;;;;;7.70;62.47;102401.63;6277023;22;20325;-60
2022/03/28 05:19:02;;;;;;;15.85;5.80;;;;;;;7.66;62.96;102399.66;6277126;22;20004;-60
2022/03/28 05:21:28;;;;;;;15.68;5.82;;;;;;;7.61;63.16;102403.81;6277646;22;19999;-60
2022/03/28 05:23:54;;;;;;;12.48;5.78;;;;;;;7.58;63.06;102394.06;6277415;22;20000;-59
2022/03/28 05:26:19;;;;;;;10.98;5.07;;;;;;;7.61;62.51;102393.28;6277397;22;20034;-59
2022/03/28 05:28:45;;;;;;;13.27;5.13;;;;;;;7.61;63.24;102394.19;6277595;22;20465;-59
2022/03/28 05:31:16;;;;;;;17.73;5.57;;;;;;;7.58;63.42;102394.06;6277392;22;20010;-59
2022/03/28 05:33:42;;;;;;;14.70;6.38;;;;;;;7.56;64.32;102397.44;6277076;22;20007;-59
2022/03/28 05:36:08;;;;;;;15.73;5.90;;;;;;;7.56;63.44;102397.44;6276688;22;20007;-60
2022/03/28 05:38:37;;;;;;;15.45;5.72;;;;;;;7.56;62.57;102398.34;6277345;22;20324;-60
2022/03/28 05:41:05;;;;;;;12.95;5.80;;;;;;;7.58;63.06;102393.13;6277269;22;20008;-59
2022/03/28 05:43:37;;;;;;;16.65;8.55;;;;;;;7.61;62.65;102398.56;6276986;22;20302;-59
2022/03/28 05:49:24;;;;;;;19.40;6.68;;;;;;;7.73;62.33;102392.13;6277075;22;19914;-59
2022/03/28 05:51:51;;;;;;;18.48;7.57;;;;;;;7.76;62.89;102391.41;6277394;22;20038;-59
2022/03/28 05:54:26;;;;;;;19.63;7.28;;;;;;;7.78;62.23;102395.88;6276855;22;20095;-58
2022/03/28 05:56:51;;;;;;;21.40;7.63;;;;;;;7.81;62.69;102386.34;6275793;22;20000;-59
2022/03/28 05:59:18;;;;;;;19.50;7.72;;;;;;;7.85;62.75;102394.44;6276834;22;20046;-60
2022/03/28 06:01:43;;;;;;;16.60;7.15;;;;;;;7.95;62.22;102385.25;6250323;22;20007;-59
2022/03/28 06:04:09;;;;;;;14.52;6.70;;;;;;;8.03;62.64;102378.59;6276797;22;20003;-59
2022/03/28 06:06:34;;;;;;;12.45;5.38;;;;;;;8.11;62.49;102374.59;6276917;22;20321;-59
2022/03/28 06:09:01;;;;;;;10.82;5.03;;;;;;;8.15;62.36;102379.16;6276840;22;20447;-59
2022/03/28 06:11:26;;;;;;;9.40;4.30;;;;;;;8.12;62.43;102381.66;6276846;22;20000;-59
2022/03/28 06:13:53;;;;;;;8.52;4.15;;;;;;;8.16;62.37;102377.44;6249698;22;20003;-59
2022/03/28 06:16:19;;;;;;;14.38;4.40;;;;;;;8.27;62.49;102376.19;6276811;22;20340;-60
2022/03/28 06:18:47;;;;;;;7.63;4.30;;;;;;;8.47;62.17;102372.72;6276684;22;20004;-60
2022/03/28 06:21:12;;;;;;;6.95;4.03;;;;;;;8.55;61.42;102380.97;6276668;22;20007;-60
2022/03/28 06:23:38;;;;;;;9.88;4.35;;;;;;;8.54;62.09;102384.44;6276760;22;20004;-59
2022/03/28 06:26:04;;;;;;;8.88;4.68;;;;;;;8.64;62.90;102380.47;6276537;22;20004;-60
2022/03/28 06:28:30;;;;;;;10.05;4.80;;;;;;;8.78;63.38;102374.06;6276744;22;19996;-59
2022/03/28 06:30:57;;;;;;;10.38;5.10;;;;;;;8.97;62.72;102379.25;6277071;22;20004;-59
2022/03/28 06:33:23;;;;;;;11.77;5.25;;;;;;;9.17;62.31;102373.94;6249426;22;20031;-59
2022/03/28 06:35:49;;;;;;;13.27;5.45;;;;;;;9.38;62.49;102373.88;6274786;22;20070;-59
2022/03/28 06:38:15;;;;;;;15.32;5.65;;;;;;;9.55;62.03;102370.19;6276758;22;20004;-59
2022/03/28 06:40:41;;;;;;;20.30;6.03;;;;;;;9.61;62.64;102375.69;6276369;22;20081;-60
2022/03/28 06:43:06;;;;;;;19.05;6.00;;;;;;;9.75;62.62;102374.47;6276626;22;20059;-60
2022/03/28 06:45:32;;;;;;;14.90;5.50;;;;;;;9.96;62.53;102377.03;6276634;22;20003;-59
2022/03/28 06:47:58;;;;;;;17.05;5.93;;;;;;;10.03;62.98;102373.81;6276678;22;20011;-60
2022/03/28 06:50:25;;;;;;;19.80;6.28;;;;;;;10.24;62.91;102379.00;6276461;22;20000;-57
2022/03/28 06:52:52;;;;;;;20.67;6.82;;;;;;;10.42;62.21;102370.84;6276826;22;20049;-60
2022/03/28 06:55:19;;;;;;;21.80;6.68;;;;;;;10.63;61.99;102368.06;6276203;22;20053;-60
2022/03/28 06:57:44;;;;;;;24.05;7.03;;;;;;;10.82;61.88;102371.34;6276332;22;20298;-60
2022/03/28 07:00:11;;;;;;;27.08;7.72;;;;;;;10.86;61.91;102368.84;6276831;22;20008;-60
2022/03/28 07:02:37;;;;;;;31.92;7.82;;;;;;;10.88;62.59;102369.81;6276719;22;20011;-60
2022/03/28 07:05:07;;;;;;;23.55;7.43;;;;;;;11.06;61.78;102366.00;6276662;22;20077;-58
2022/03/28 07:07:58;;;;;;;28.38;7.63;;;;;;;11.18;61.63;102356.72;6276688;22;20045;-58
2022/03/28 07:10:24;;;;;;;36.53;7.57;;;;;;;11.34;61.36;102354.53;6270296;22;20019;-59
2022/03/28 07:12:54;;;;;;;25.48;7.43;;;;;;;11.54;61.05;102349.00;6249297;22;20011;-59
2022/03/28 07:15:21;;;;;;;29.92;7.88;;;;;;;11.62;61.08;102354.56;6276330;22;20058;-59
2022/03/28 07:17:54;;;;;;;21.88;7.50;;;;;;;11.71;60.55;102346.00;6276937;22;20097;-59
2022/03/28 07:20:24;;;;;;;28.63;7.57;;;;;;;11.97;59.66;102347.69;6278461;22;20073;-59
2022/03/28 07:22:51;;;;;;;28.83;7.85;;;;;;;12.24;59.02;102358.16;6278641;22;20004;-59
2022/03/28 07:25:16;;;;;;;24.30;8.38;;;;;;;12.50;59.30;102350.03;6278310;22;20321;-59
2022/03/28 07:27:42;;;;;;;30.02;8.18;;;;;;;12.80;57.28;102349.94;6278404;22;20000;-60
2022/03/28 07:30:09;;;;;;;28.42;8.45;;;;;;;12.91;56.99;102342.28;6278580;22;20004;-59
2022/03/28 07:32:37;;;;;;;28.23;8.57;;;;;;;13.11;56.41;102340.13;6278419;22;20004;-60
2022/03/28 07:35:03;;;;;;;23.38;8.82;;;;;;;13.36;56.42;102341.59;6278413;22;20003;-59
2022/03/28 07:37:29;;;;;;;24.63;9.30;;;;;;;13.53;54.70;102341.16;6277777;22;20007;-59
2022/03/28 07:39:56;;;;;;;20.23;9.00;;;;;;;13.73;55.09;102346.00;6278488;22;20042;-60
2022/03/28 07:42:22;;;;;;;23.48;9.43;;;;;;;13.91;54.49;102338.41;6278208;22;20000;-59
2022/03/28 07:44:48;;;;;;;32.08;10.35;;;;;;;14.06;53.63;102334.31;6278622;22;20006;-59
2022/03/28 07:47:14;;;;;;;26.73;9.88;;;;;;;14.22;53.27;102333.75;6278180;22;20003;-59
2022/03/28 07:49:39;;;;;;;28.00;10.10;;;;;;;14.44;52.89;102327.06;6278460;22;20003;-59
2022/03/28 07:52:07;;;;;;;27.65;10.38;;;;;;;14.67;52.28;102322.19;6278099;22;20076;-60
2022/03/28 07:54:33;;;;;;;25.73;9.98;;;;;;;14.58;52.15;102312.28;6278257;22;20008;-60
2022/03/28 07:56:58;;;;;;;24.80;9.95;;;;;;;14.81;51.80;102311.78;6277574;22;20435;-59
2022/03/28 07:59:24;;;;;;;24.73;10.32;;;;;;;14.94;50.93;102305.78;6277740;22;20003;-59
2022/03/28 08:01:51;;;;;;;26.88;10.50;;;;;;;15.09;50.52;102298.03;6277865;22;20370;-59
2022/03/28 08:04:17;;;;;;;28.50;10.73;;;;;;;15.17;50.67;102298.16;6278034;22;20007;-59
2022/03/28 08:06:43;;;;;;;28.98;10.73;;;;;;;15.44;50.08;102295.91;6250656;22;20026;-60
2022/03/28 08:09:09;;;;;;;27.20;10.80;;;;;;;15.60;50.28;102313.00;6277932;22;20417;-59
2022/03/28 08:11:35;;;;;;;27.75;11.35;;;;;;;15.78;48.97;102313.25;6278044;22;19999;-59
2022/03/28 08:14:03;;;;;;;29.27;11.90;;;;;;;15.95;48.94;102300.13;6277981;22;20035;-60
2022/03/28 08:16:32;;;;;;;25.63;11.05;;;;;;;16.19;48.46;102298.66;6278177;22;19999;-59
2022/03/28 08:18:58;;;;;;;23.55;11.25;;;;;;;16.20;48.29;102303.09;6277766;22;20000;-59
2022/03/28 08:21:23;;;;;;;29.50;12.43;;;;;;;16.18;48.01;102296.84;6250309;22;20008;-60
2022/03/28 08:23:49;;;;;;;28.27;11.57;;;;;;;16.34;47.93;102295.22;6277710;22;20085;-59
2022/03/28 08:26:14;;;;;;;25.50;11.60;;;;;;;16.45;47.69;102286.47;6277593;22;19999;-60
2022/03/28 08:28:41;;;;;;;27.48;12.40;;;;;;;16.60;47.42;102290.16;6277332;22;20012;-59
2022/03/28 08:31:06;;;;;;;25.58;11.73;;;;;;;16.89;46.94;102282.41;6277934;22;20007;-59
2022/03/28 08:33:32;;;;;;;30.98;11.80;;;;;;;17.02;46.75;102284.28;6277378;22;20025;-59
2022/03/28 08:35:57;;;;;;;27.83;12.10;;;;;;;17.13;46.58;102287.94;6276950;22;20054;-60
2022/03/28 08:38:26;;;;;;;25.67;12.00;;;;;;;17.32;45.77;102288.06;6277289;22;20011;-60
2022/03/28 08:40:52;;;;;;;28.58;12.45;;;;;;;17.41;45.60;102280.09;6277475;22;20000;-60
2022/03/28 08:43:22;;;;;;;24.52;12.13;;;;;;;17.46;45.44;102279.22;6277844;22;20015;-59
2022/03/28 08:45:51;;;;;;;27.58;12.20;;;;;;;17.68;45.11;102282.00;6277377;22;20004;-59
2022/03/28 08:48:18;;;;;;;31.45;13.60;;;;;;;17.65;44.88;102273.97;6250487;22;20079;-60
2022/03/28 08:50:49;;;;;;;28.17;12.07;;;;;;;17.89;44.20;102270.53;6277627;22;20045;-60
2022/03/28 08:53:15;;;;;;;32.10;13.50;;;;;;;18.04;43.61;102273.25;6250209;22;20034;-60
2022/03/28 08:55:42;;;;;;;27.85;13.25;;;;;;;18.38;43.28;102270.66;6277640;22;20027;-59
2022/03/28 08:58:09;;;;;;;31.50;14.48;;;;;;;18.46;42.23;102267.09;6277492;22;20007;-60
2022/03/28 09:00:35;;;;;;;32.70;14.93;;;;;;;18.47;43.25;102266.19;6277827;22;20000;-60
2022/03/28 09:03:01;;;;;;;29.10;15.20;;;;;;;18.90;41.97;102270.69;6277376;22;20014;-60
2022/03/28 09:05:35;;;;;;;32.55;15.48;;;;;;;19.03;42.15;102267.09;6277437;22;20077;-61
2022/03/28 09:08:02;;;;;;;30.83;14.43;;;;;;;19.13;42.19;102270.66;6277547;22;20007;-59
2022/03/28 09:10:33;;;;;;;27.55;13.77;;;;;;;19.52;41.36;102272.31;6277482;22;20009;-60
2022/03/28 09:13:06;;;;;;;39.60;14.88;;;;;;;19.54;41.10;102266.97;6277475;22;20007;-61
2022/03/28 09:15:57;;;;;;;36.65;15.32;;;;;;;19.80;41.46;102259.75;6277460;22;20034;-60
2022/03/28 09:18:32;;;;;;;31.83;14.95;;;;;;;19.90;40.57;102257.88;6250060;22;20037;-60
2022/03/28 09:21:12;;;;;;;35.97;15.02;;;;;;;20.21;40.85;102247.84;6250209;22;20018;-61
2022/03/28 09:23:53;;;;;;;30.10;16.00;;;;;;;20.49;39.89;102254.84;6250175;22;20014;-59
2022/03/28 09:26:24;;;;;;;33.97;17.50;;;;;;;20.49;38.81;102252.16;6277302;22;20012;-60
2022/03/28 09:28:56;;;;;;;41.10;18.08;;;;;;;20.70;38.22;102258.28;6277462;22;20035;-60
2022/03/28 09:31:33;;;;;;;34.47;16.38;;;;;;;20.98;38.02;102253.50;6277603;22;20027;-60
2022/03/28 09:34:03;;;;;;;35.80;17.07;;;;;;;21.10;37.77;102250.69;6277150;22;20336;-60
2022/03/28 09:36:37;;;;;;;31.38;16.17;;;;;;;20.99;38.89;102249.94;6276914;22;20008;-60
2022/03/28 09:39:04;;;;;;;30.45;16.20;;;;;;;21.49;36.88;102240.44;6277113;22;20007;-61
2022/03/28 09:41:31;;;;;;;35.63;17.42;;;;;;;21.47;36.76;102243.16;6277090;22;20007;-60
2022/03/28 09:43:57;;;;;;;37.90;19.35;;;;;;;21.63;35.35;102240.28;6249726;22;20035;-60
2022/03/28 09:46:32;;;;;;;37.67;18.23;;;;;;;21.79;36.91;102235.56;6277021;22;20375;-59
2022/03/28 09:48:59;;;;;;;34.40;16.50;;;;;;;22.10;36.31;102233.31;6276928;22;20078;-60
2022/03/28 09:51:35;;;;;;;32.38;17.77;;;;;;;22.44;36.02;102231.00;6277179;22;20003;-59
2022/03/28 09:54:19;;;;;;;36.75;17.92;;;;;;;22.31;36.72;102232.13;6276413;22;20041;-60
2022/03/28 09:57:07;;;;;;;34.97;16.60;;;;;;;22.64;35.98;102230.69;6276880;22;20053;-58
2022/03/28 09:59:40;;;;;;;34.42;18.10;;;;;;;22.63;35.63;102223.53;6276594;22;20008;-59
2022/03/28 10:02:20;;;;;;;42.03;18.30;;;;;;;22.71;35.55;102218.91;6249580;22;20065;-59
2022/03/28 10:04:49;;;;;;;36.08;17.92;;;;;;;23.05;33.33;102210.22;6276727;22;19999;-60
2022/03/28 10:07:15;;;;;;;42.72;18.42;;;;;;;22.87;33.70;102219.50;6276593;22;20054;-61
2022/03/28 10:09:42;;;;;;;33.58;17.98;;;;;;;22.87;33.41;102211.41;6276916;22;20015;-60
2022/03/28 10:12:08;;;;;;;35.97;18.98;;;;;;;23.35;32.09;102212.31;6276697;22;19999;-60
2022/03/28 10:14:35;;;;;;;35.28;19.33;;;;;;;23.30;32.03;102210.59;6276693;22;20014;-60
2022/03/28 10:17:04;;;;;;;32.38;18.67;;;;;;;23.41;32.42;102213.97;6276286;22;20018;-61
2022/03/28 10:19:37;;;;;;;35.15;18.33;;;;;;;23.62;31.46;102197.31;6276537;22;20057;-60
2022/03/28 10:22:07;;;;;;;31.80;18.17;;;;;;;23.61;31.43;102211.75;6249452;22;20000;-60
2022/03/28 10:24:41;;;;;;;36.17;18.02;;;;;;;23.65;32.13;102207.22;6276524;22;20078;-61
2022/03/28 10:27:08;;;;;;;35.70;19.13;;;;;;;23.73;31.14;102199.84;6276592;22;20007;-60
2022/03/28 10:29:53;;;;;;;38.88;19.45;;;;;;;23.73;31.77;102199.84;6276688;22;20090;-60
2022/03/28 10:32:22;;;;;;;35.92;20.00;;;;;;;23.59;31.27;102197.38;6272882;22;20015;-60
2022/03/28 10:34:49;;;;;;;33.13;19.20;;;;;;;23.64;30.21;102190.09;6276628;22;20463;-60
2022/03/28 10:37:39;;;;;;;35.80;19.10;;;;;;;24.00;32.94;102182.09;6275529;22;20016;-58
2022/03/28 10:40:32;;;;;;;32.85;17.65;;;;;;;24.26;30.98;102176.06;6276258;22;20011;-61
2022/03/28 10:43:13;;;;;;;29.83;17.70;;;;;;;24.58;29.91;102174.34;6276459;22;20004;-60
2022/03/28 10:45:56;;;;;;;28.83;17.60;;;;;;;24.63;30.06;102165.22;6276024;22;20077;-62
2022/03/28 10:48:59;;;;;;;32.17;18.13;;;;;;;24.64;30.53;102169.69;6276453;22;20053;-61
2022/03/28 10:51:30;;;;;;;33.70;18.25;;;;;;;24.94;28.83;102156.25;6277659;22;20010;-59
2022/03/28 10:54:01;;;;;;;34.42;18.60;;;;;;;24.92;28.99;102159.03;6276443;22;20027;-60
2022/03/28 10:56:45;;;;;;;33.22;17.67;;;;;;;24.88;28.69;102157.31;6276462;22;20057;-60
2022/03/28 10:59:19;;;;;;;31.08;17.00;;;;;;;24.78;29.68;102157.63;6276076;22;20011;-60
2022/03/28 11:01:49;;;;;;;26.40;17.00;;;;;;;25.11;28.46;102150.41;6276317;22;20010;-60
2022/03/28 11:04:22;;;;;;;31.05;17.42;;;;;;;25.22;27.57;102150.94;6276545;22;20000;-60
2022/03/28 11:07:04;;;;;;;28.02;17.35;;;;;;;25.39;27.83;102145.91;6276370;22;20008;-60
2022/03/28 11:09:43;;;;;;;27.92;17.25;;;;;;;25.75;27.93;102142.13;6276560;22;20003;-61
2022/03/28 11:12:22;;;;;;;30.45;17.05;;;;;;;25.76;26.60;102141.19;6276374;22;20080;-60
2022/03/28 11:14:50;;;;;;;31.00;17.95;;;;;;;25.83;27.08;102140.09;6276275;22;20057;-62
2022/03/28 11:17:20;;;;;;;29.38;17.67;;;;;;;25.81;26.74;102140.13;6276165;22;20057;-60
2022/03/28 11:20:08;;;;;;;26.52;16.13;;;;;;;25.94;27.27;102135.22;6276068;22;20007;-61
2022/03/28 11:22:50;;;;;;;29.90;17.30;;;;;;;25.81;27.87;102134.72;6276687;22;20310;-61
2022/03/28 11:25:31;;;;;;;30.00;17.30;;;;;;;26.09;27.50;102128.41;6276117;22;20010;-61
2022/03/28 11:28:15;;;;;;;33.08;18.23;;;;;;;26.39;26.41;102124.63;6276413;22;20000;-60
2022/03/28 11:30:43;;;;;;;29.00;17.30;;;;;;;26.49;26.66;102121.63;6276007;22;20012;-60